sensor_id;sensor_type;location;lat;lon;timestamp;P1;durP1;ratioP1;P2;durP2;ratioP2
9976;SDS011;5029;47.378;11.776;2023-01-16T00:04:32;1.27;;;1.17;;
9976;SDS011;5029;47.378;11.776;2023-01-16T00:09:38;2.07;;;1.90;;
9976;SDS011;5029;47.378;11.776;2023-01-16T00:14:42;1.63;;;1.50;;
9976;SDS011;5029;47.378;11.776;2023-01-16T00:19:45;1.50;;;1.30;;
9976;SDS011;5029;47.378;11.776;2023-01-16T00:24:50;1.63;;;1.20;;
9976;SDS011;5029;47.378;11.776;2023-01-16T00:29:53;3.80;;;1.60;;
9976;SDS011;5029;47.378;11.776;2023-01-16T00:34:57;1.60;;;1.50;;
9976;SDS011;5029;47.378;11.776;2023-01-16T00:40:01;2.80;;;2.60;;
9976;SDS011;5029;47.378;11.776;2023-01-16T00:45:05;2.87;;;2.50;;
9976;SDS011;5029;47.378;11.776;2023-01-16T00:50:10;3.83;;;3.53;;
9976;SDS011;5029;47.378;11.776;2023-01-16T00:55:15;3.90;;;3.60;;
9976;SDS011;5029;47.378;11.776;2023-01-16T01:00:19;4.67;;;3.73;;
9976;SDS011;5029;47.378;11.776;2023-01-16T01:05:23;3.60;;;3.30;;
9976;SDS011;5029;47.378;11.776;2023-01-16T01:10:27;3.63;;;3.33;;
9976;SDS011;5029;47.378;11.776;2023-01-16T01:15:31;3.60;;;3.10;;
9976;SDS011;5029;47.378;11.776;2023-01-16T01:20:35;4.00;;;3.00;;
9976;SDS011;5029;47.378;11.776;2023-01-16T01:25:40;3.43;;;3.13;;
9976;SDS011;5029;47.378;11.776;2023-01-16T01:30:43;3.07;;;2.77;;
9976;SDS011;5029;47.378;11.776;2023-01-16T01:35:46;3.83;;;3.20;;
9976;SDS011;5029;47.378;11.776;2023-01-16T01:40:51;3.27;;;2.97;;
9976;SDS011;5029;47.378;11.776;2023-01-16T01:45:55;4.03;;;3.13;;
9976;SDS011;5029;47.378;11.776;2023-01-16T01:50:59;5.37;;;3.30;;
9976;SDS011;5029;47.378;11.776;2023-01-16T01:56:10;4.17;;;3.77;;
9976;SDS011;5029;47.378;11.776;2023-01-16T02:01:17;4.20;;;3.90;;
9976;SDS011;5029;47.378;11.776;2023-01-16T02:06:21;3.57;;;3.27;;
9976;SDS011;5029;47.378;11.776;2023-01-16T02:11:33;3.40;;;3.10;;
9976;SDS011;5029;47.378;11.776;2023-01-16T02:16:41;3.60;;;3.30;;
9976;SDS011;5029;47.378;11.776;2023-01-16T02:22:22;3.70;;;3.40;;
9976;SDS011;5029;47.378;11.776;2023-01-16T02:33:34;3.37;;;3.07;;
9976;SDS011;5029;47.378;11.776;2023-01-16T02:38:51;3.50;;;3.20;;
9976;SDS011;5029;47.378;11.776;2023-01-16T02:43:59;3.60;;;3.10;;
9976;SDS011;5029;47.378;11.776;2023-01-16T02:49:14;3.40;;;3.10;;
9976;SDS011;5029;47.378;11.776;2023-01-16T02:54:23;3.53;;;3.23;;
9976;SDS011;5029;47.378;11.776;2023-01-16T02:59:29;3.10;;;2.80;;
9976;SDS011;5029;47.378;11.776;2023-01-16T03:10:01;4.03;;;2.60;;
9976;SDS011;5029;47.378;11.776;2023-01-16T03:15:26;1.80;;;1.60;;
9976;SDS011;5029;47.378;11.776;2023-01-16T03:20:34;2.20;;;1.80;;
9976;SDS011;5029;47.378;11.776;2023-01-16T03:25:48;1.97;;;1.73;;
9976;SDS011;5029;47.378;11.776;2023-01-16T03:30:59;1.87;;;1.77;;
9976;SDS011;5029;47.378;11.776;2023-01-16T03:36:10;2.67;;;1.77;;
9976;SDS011;5029;47.378;11.776;2023-01-16T03:41:18;2.50;;;2.10;;
9976;SDS011;5029;47.378;11.776;2023-01-16T03:46:27;3.20;;;2.23;;
9976;SDS011;5029;47.378;11.776;2023-01-16T03:51:36;2.00;;;1.90;;
9976;SDS011;5029;47.378;11.776;2023-01-16T03:56:45;3.60;;;2.40;;
9976;SDS011;5029;47.378;11.776;2023-01-16T04:01:53;2.07;;;1.87;;
9976;SDS011;5029;47.378;11.776;2023-01-16T04:07:02;2.53;;;2.33;;
9976;SDS011;5029;47.378;11.776;2023-01-16T04:12:11;3.13;;;2.83;;
9976;SDS011;5029;47.378;11.776;2023-01-16T04:17:19;3.87;;;3.57;;
9976;SDS011;5029;47.378;11.776;2023-01-16T04:22:25;4.47;;;4.07;;
9976;SDS011;5029;47.378;11.776;2023-01-16T04:27:30;4.27;;;3.87;;
9976;SDS011;5029;47.378;11.776;2023-01-16T04:32:33;4.30;;;3.90;;
9976;SDS011;5029;47.378;11.776;2023-01-16T04:37:38;3.87;;;3.57;;
9976;SDS011;5029;47.378;11.776;2023-01-16T04:42:42;3.87;;;3.53;;
9976;SDS011;5029;47.378;11.776;2023-01-16T04:47:45;5.43;;;4.00;;
9976;SDS011;5029;47.378;11.776;2023-01-16T04:52:50;5.03;;;4.53;;
9976;SDS011;5029;47.378;11.776;2023-01-16T04:57:54;5.17;;;4.77;;
9976;SDS011;5029;47.378;11.776;2023-01-16T05:02:57;5.20;;;4.70;;
9976;SDS011;5029;47.378;11.776;2023-01-16T05:08:02;5.40;;;4.90;;
9976;SDS011;5029;47.378;11.776;2023-01-16T05:13:18;5.67;;;5.10;;
9976;SDS011;5029;47.378;11.776;2023-01-16T05:18:21;5.70;;;5.20;;
9976;SDS011;5029;47.378;11.776;2023-01-16T05:23:27;6.57;;;6.07;;
9976;SDS011;5029;47.378;11.776;2023-01-16T05:28:31;5.67;;;5.17;;
9976;SDS011;5029;47.378;11.776;2023-01-16T05:33:34;7.53;;;5.87;;
9976;SDS011;5029;47.378;11.776;2023-01-16T05:38:39;7.20;;;6.60;;
9976;SDS011;5029;47.378;11.776;2023-01-16T05:43:43;6.73;;;6.10;;
9976;SDS011;5029;47.378;11.776;2023-01-16T05:48:46;5.60;;;5.20;;
9976;SDS011;5029;47.378;11.776;2023-01-16T05:53:51;6.90;;;6.20;;
9976;SDS011;5029;47.378;11.776;2023-01-16T05:58:55;6.47;;;5.97;;
9976;SDS011;5029;47.378;11.776;2023-01-16T06:03:58;6.47;;;5.93;;
9976;SDS011;5029;47.378;11.776;2023-01-16T06:09:03;6.67;;;6.07;;
9976;SDS011;5029;47.378;11.776;2023-01-16T06:14:07;6.53;;;5.97;;
9976;SDS011;5029;47.378;11.776;2023-01-16T06:19:10;7.07;;;6.37;;
9976;SDS011;5029;47.378;11.776;2023-01-16T06:24:15;7.57;;;6.40;;
9976;SDS011;5029;47.378;11.776;2023-01-16T06:29:18;7.07;;;5.87;;
9976;SDS011;5029;47.378;11.776;2023-01-16T06:34:22;6.40;;;5.90;;
9976;SDS011;5029;47.378;11.776;2023-01-16T06:39:27;6.83;;;6.23;;
9976;SDS011;5029;47.378;11.776;2023-01-16T06:44:30;7.87;;;7.17;;
9976;SDS011;5029;47.378;11.776;2023-01-16T06:49:34;10.53;;;7.47;;
9976;SDS011;5029;47.378;11.776;2023-01-16T06:54:39;31.77;;;25.30;;
9976;SDS011;5029;47.378;11.776;2023-01-16T06:59:42;8.50;;;7.70;;
9976;SDS011;5029;47.378;11.776;2023-01-16T07:04:46;12.17;;;11.07;;
9976;SDS011;5029;47.378;11.776;2023-01-16T07:09:50;7.00;;;6.40;;
9976;SDS011;5029;47.378;11.776;2023-01-16T07:14:54;6.97;;;6.37;;
9976;SDS011;5029;47.378;11.776;2023-01-16T07:20:15;7.70;;;7.00;;
9976;SDS011;5029;47.378;11.776;2023-01-16T07:25:37;7.80;;;7.13;;
9976;SDS011;5029;47.378;11.776;2023-01-16T07:30:40;8.27;;;7.47;;
9976;SDS011;5029;47.378;11.776;2023-01-16T07:35:45;7.70;;;7.00;;
9976;SDS011;5029;47.378;11.776;2023-01-16T07:40:50;7.20;;;6.60;;
9976;SDS011;5029;47.378;11.776;2023-01-16T07:45:53;6.87;;;6.00;;
9976;SDS011;5029;47.378;11.776;2023-01-16T07:50:57;6.00;;;5.50;;
9976;SDS011;5029;47.378;11.776;2023-01-16T07:56:03;5.73;;;5.17;;
9976;SDS011;5029;47.378;11.776;2023-01-16T08:01:06;5.40;;;4.90;;
9976;SDS011;5029;47.378;11.776;2023-01-16T08:06:10;5.80;;;5.20;;
9976;SDS011;5029;47.378;11.776;2023-01-16T08:11:15;4.53;;;4.13;;
9976;SDS011;5029;47.378;11.776;2023-01-16T08:16:36;4.67;;;4.00;;
9976;SDS011;5029;47.378;11.776;2023-01-16T08:21:39;5.07;;;4.53;;
9976;SDS011;5029;47.378;11.776;2023-01-16T08:26:44;4.73;;;4.30;;
9976;SDS011;5029;47.378;11.776;2023-01-16T08:31:48;3.43;;;3.10;;
9976;SDS011;5029;47.378;11.776;2023-01-16T08:36:51;3.30;;;3.00;;
9976;SDS011;5029;47.378;11.776;2023-01-16T08:41:56;3.03;;;2.37;;
9976;SDS011;5029;47.378;11.776;2023-01-16T08:47:18;6.43;;;3.10;;
9976;SDS011;5029;47.378;11.776;2023-01-16T08:52:42;4.33;;;3.40;;
9976;SDS011;5029;47.378;11.776;2023-01-16T08:57:48;5.07;;;3.63;;
9976;SDS011;5029;47.378;11.776;2023-01-16T09:02:52;3.90;;;3.60;;
9976;SDS011;5029;47.378;11.776;2023-01-16T09:07:57;4.30;;;3.87;;
9976;SDS011;5029;47.378;11.776;2023-01-16T09:13:02;3.83;;;3.40;;
9976;SDS011;5029;47.378;11.776;2023-01-16T09:18:23;4.23;;;3.83;;
9976;SDS011;5029;47.378;11.776;2023-01-16T09:23:27;3.03;;;2.70;;
9976;SDS011;5029;47.378;11.776;2023-01-16T09:28:32;4.33;;;3.93;;
9976;SDS011;5029;47.378;11.776;2023-01-16T09:33:35;4.10;;;3.70;;
9976;SDS011;5029;47.378;11.776;2023-01-16T09:38:39;4.33;;;3.93;;
9976;SDS011;5029;47.378;11.776;2023-01-16T09:43:46;4.10;;;3.70;;
9976;SDS011;5029;47.378;11.776;2023-01-16T09:48:51;3.93;;;3.47;;
9976;SDS011;5029;47.378;11.776;2023-01-16T09:54:01;3.20;;;2.90;;
9976;SDS011;5029;47.378;11.776;2023-01-16T09:59:26;3.20;;;2.90;;
9976;SDS011;5029;47.378;11.776;2023-01-16T10:04:33;3.03;;;2.73;;
9976;SDS011;5029;47.378;11.776;2023-01-16T10:09:39;3.10;;;2.77;;
9976;SDS011;5029;47.378;11.776;2023-01-16T10:14:56;3.43;;;3.13;;
9976;SDS011;5029;47.378;11.776;2023-01-16T10:20:16;3.90;;;3.60;;
9976;SDS011;5029;47.378;11.776;2023-01-16T10:25:37;3.40;;;3.00;;
9976;SDS011;5029;47.378;11.776;2023-01-16T10:30:50;2.93;;;2.53;;
9976;SDS011;5029;47.378;11.776;2023-01-16T10:35:57;3.63;;;2.90;;
9976;SDS011;5029;47.378;11.776;2023-01-16T10:41:02;3.00;;;2.70;;
9976;SDS011;5029;47.378;11.776;2023-01-16T10:46:27;2.90;;;2.60;;
9976;SDS011;5029;47.378;11.776;2023-01-16T10:51:52;3.20;;;2.90;;
9976;SDS011;5029;47.378;11.776;2023-01-16T10:56:57;2.87;;;2.67;;
9976;SDS011;5029;47.378;11.776;2023-01-16T11:02:11;2.60;;;2.40;;
9976;SDS011;5029;47.378;11.776;2023-01-16T11:07:22;2.70;;;2.50;;
9976;SDS011;5029;47.378;11.776;2023-01-16T11:12:29;2.93;;;2.63;;
9976;SDS011;5029;47.378;11.776;2023-01-16T11:17:53;2.60;;;2.40;;
9976;SDS011;5029;47.378;11.776;2023-01-16T11:23:15;2.90;;;2.60;;
9976;SDS011;5029;47.378;11.776;2023-01-16T11:28:22;2.50;;;2.20;;
9976;SDS011;5029;47.378;11.776;2023-01-16T11:33:32;3.30;;;2.70;;
9976;SDS011;5029;47.378;11.776;2023-01-16T11:38:38;3.37;;;2.40;;
9976;SDS011;5029;47.378;11.776;2023-01-16T11:43:49;2.87;;;2.60;;
9976;SDS011;5029;47.378;11.776;2023-01-16T11:49:34;2.30;;;1.93;;
9976;SDS011;5029;47.378;11.776;2023-01-16T11:54:40;7.17;;;6.10;;
9976;SDS011;5029;47.378;11.776;2023-01-16T11:59:56;2.80;;;2.10;;
9976;SDS011;5029;47.378;11.776;2023-01-16T12:05:26;2.13;;;1.93;;
9976;SDS011;5029;47.378;11.776;2023-01-16T12:11:01;4.77;;;2.47;;
9976;SDS011;5029;47.378;11.776;2023-01-16T12:16:12;2.00;;;1.80;;
9976;SDS011;5029;47.378;11.776;2023-01-16T12:21:29;2.00;;;1.90;;
9976;SDS011;5029;47.378;11.776;2023-01-16T12:26:39;1.77;;;1.60;;
9976;SDS011;5029;47.378;11.776;2023-01-16T12:31:58;2.07;;;1.80;;
9976;SDS011;5029;47.378;11.776;2023-01-16T12:37:12;1.90;;;1.70;;
9976;SDS011;5029;47.378;11.776;2023-01-16T12:42:30;2.80;;;1.80;;
9976;SDS011;5029;47.378;11.776;2023-01-16T12:48:03;1.70;;;1.60;;
9976;SDS011;5029;47.378;11.776;2023-01-16T12:59:10;2.00;;;1.50;;
9976;SDS011;5029;47.378;11.776;2023-01-16T13:04:19;1.60;;;1.40;;
9976;SDS011;5029;47.378;11.776;2023-01-16T13:09:29;2.33;;;1.87;;
9976;SDS011;5029;47.378;11.776;2023-01-16T13:14:39;2.27;;;1.77;;
9976;SDS011;5029;47.378;11.776;2023-01-16T13:19:47;2.33;;;1.63;;
9976;SDS011;5029;47.378;11.776;2023-01-16T13:24:56;1.73;;;1.53;;
9976;SDS011;5029;47.378;11.776;2023-01-16T13:30:03;2.00;;;1.80;;
9976;SDS011;5029;47.378;11.776;2023-01-16T13:35:13;3.87;;;3.10;;
9976;SDS011;5029;47.378;11.776;2023-01-16T13:40:25;4.00;;;1.87;;
9976;SDS011;5029;47.378;11.776;2023-01-16T13:45:41;2.30;;;2.07;;
9976;SDS011;5029;47.378;11.776;2023-01-16T13:50:52;1.60;;;1.30;;
9976;SDS011;5029;47.378;11.776;2023-01-16T13:56:06;2.43;;;1.60;;
9976;SDS011;5029;47.378;11.776;2023-01-16T14:01:28;1.83;;;1.10;;
9976;SDS011;5029;47.378;11.776;2023-01-16T14:06:43;1.20;;;1.00;;
9976;SDS011;5029;47.378;11.776;2023-01-16T14:12:00;1.17;;;0.93;;
9976;SDS011;5029;47.378;11.776;2023-01-16T14:17:16;3.00;;;1.90;;
9976;SDS011;5029;47.378;11.776;2023-01-16T14:22:21;1.40;;;1.23;;
9976;SDS011;5029;47.378;11.776;2023-01-16T14:27:47;2.40;;;2.20;;
9976;SDS011;5029;47.378;11.776;2023-01-16T14:32:55;5.07;;;2.30;;
9976;SDS011;5029;47.378;11.776;2023-01-16T14:38:02;3.27;;;2.83;;
9976;SDS011;5029;47.378;11.776;2023-01-16T14:43:11;2.30;;;2.07;;
9976;SDS011;5029;47.378;11.776;2023-01-16T14:48:35;2.83;;;1.90;;
9976;SDS011;5029;47.378;11.776;2023-01-16T14:53:57;5.07;;;2.83;;
9976;SDS011;5029;47.378;11.776;2023-01-16T14:59:23;6.37;;;2.20;;
9976;SDS011;5029;47.378;11.776;2023-01-16T15:04:37;5.43;;;2.10;;
9976;SDS011;5029;47.378;11.776;2023-01-16T15:09:45;2.20;;;1.83;;
9976;SDS011;5029;47.378;11.776;2023-01-16T15:14:54;2.60;;;2.13;;
9976;SDS011;5029;47.378;11.776;2023-01-16T15:25:45;2.80;;;1.90;;
9976;SDS011;5029;47.378;11.776;2023-01-16T15:31:15;2.27;;;1.90;;
9976;SDS011;5029;47.378;11.776;2023-01-16T15:36:23;2.17;;;1.70;;
9976;SDS011;5029;47.378;11.776;2023-01-16T15:41:28;2.40;;;1.77;;
9976;SDS011;5029;47.378;11.776;2023-01-16T15:46:55;3.27;;;1.60;;
9976;SDS011;5029;47.378;11.776;2023-01-16T15:52:12;1.60;;;1.30;;
9976;SDS011;5029;47.378;11.776;2023-01-16T15:57:16;1.43;;;1.20;;
9976;SDS011;5029;47.378;11.776;2023-01-16T16:02:22;1.40;;;1.27;;
9976;SDS011;5029;47.378;11.776;2023-01-16T16:07:29;1.00;;;0.90;;
9976;SDS011;5029;47.378;11.776;2023-01-16T16:12:33;0.80;;;0.80;;
9976;SDS011;5029;47.378;11.776;2023-01-16T16:17:38;0.90;;;0.70;;
9976;SDS011;5029;47.378;11.776;2023-01-16T16:23:01;2.33;;;0.87;;
9976;SDS011;5029;47.378;11.776;2023-01-16T16:28:15;0.97;;;0.80;;
9976;SDS011;5029;47.378;11.776;2023-01-16T16:33:23;9.37;;;5.00;;
9976;SDS011;5029;47.378;11.776;2023-01-16T16:38:28;2.87;;;2.17;;
9976;SDS011;5029;47.378;11.776;2023-01-16T16:43:41;1.80;;;1.37;;
9976;SDS011;5029;47.378;11.776;2023-01-16T16:48:49;1.10;;;0.87;;
9976;SDS011;5029;47.378;11.776;2023-01-16T16:53:54;1.63;;;1.43;;
9976;SDS011;5029;47.378;11.776;2023-01-16T16:59:00;1.20;;;1.10;;
9976;SDS011;5029;47.378;11.776;2023-01-16T17:04:11;2.00;;;1.60;;
9976;SDS011;5029;47.378;11.776;2023-01-16T17:09:19;1.30;;;1.13;;
9976;SDS011;5029;47.378;11.776;2023-01-16T17:14:24;1.07;;;0.90;;
9976;SDS011;5029;47.378;11.776;2023-01-16T17:19:29;1.10;;;0.90;;
9976;SDS011;5029;47.378;11.776;2023-01-16T17:24:33;1.43;;;1.03;;
9976;SDS011;5029;47.378;11.776;2023-01-16T17:29:37;2.63;;;1.93;;
9976;SDS011;5029;47.378;11.776;2023-01-16T17:34:45;2.13;;;1.70;;
9976;SDS011;5029;47.378;11.776;2023-01-16T17:39:49;4.23;;;1.70;;
9976;SDS011;5029;47.378;11.776;2023-01-16T17:44:52;2.00;;;1.70;;
9976;SDS011;5029;47.378;11.776;2023-01-16T17:50:15;1.50;;;1.33;;
9976;SDS011;5029;47.378;11.776;2023-01-16T17:55:27;7.00;;;4.50;;
9976;SDS011;5029;47.378;11.776;2023-01-16T18:00:48;4.63;;;3.63;;
9976;SDS011;5029;47.378;11.776;2023-01-16T18:05:57;3.53;;;3.07;;
9976;SDS011;5029;47.378;11.776;2023-01-16T18:11:03;3.23;;;1.63;;
9976;SDS011;5029;47.378;11.776;2023-01-16T18:16:21;2.30;;;1.53;;
9976;SDS011;5029;47.378;11.776;2023-01-16T18:21:45;2.33;;;1.50;;
9976;SDS011;5029;47.378;11.776;2023-01-16T18:27:11;1.70;;;1.37;;
9976;SDS011;5029;47.378;11.776;2023-01-16T18:32:16;1.97;;;1.20;;
9976;SDS011;5029;47.378;11.776;2023-01-16T18:37:30;1.70;;;1.37;;
9976;SDS011;5029;47.378;11.776;2023-01-16T18:42:36;2.30;;;1.57;;
9976;SDS011;5029;47.378;11.776;2023-01-16T18:47:59;2.37;;;1.37;;
9976;SDS011;5029;47.378;11.776;2023-01-16T18:53:23;1.67;;;1.27;;
9976;SDS011;5029;47.378;11.776;2023-01-16T18:58:48;1.60;;;1.20;;
9976;SDS011;5029;47.378;11.776;2023-01-16T19:04:09;1.70;;;1.07;;
9976;SDS011;5029;47.378;11.776;2023-01-16T19:09:16;2.50;;;1.10;;
9976;SDS011;5029;47.378;11.776;2023-01-16T19:14:23;6.20;;;4.03;;
9976;SDS011;5029;47.378;11.776;2023-01-16T19:19:33;3.73;;;3.43;;
9976;SDS011;5029;47.378;11.776;2023-01-16T19:24:39;7.57;;;3.87;;
9976;SDS011;5029;47.378;11.776;2023-01-16T19:29:43;4.63;;;3.10;;
9976;SDS011;5029;47.378;11.776;2023-01-16T19:34:49;4.67;;;3.17;;
9976;SDS011;5029;47.378;11.776;2023-01-16T19:39:57;5.07;;;3.43;;
9976;SDS011;5029;47.378;11.776;2023-01-16T19:45:04;5.50;;;3.70;;
9976;SDS011;5029;47.378;11.776;2023-01-16T19:50:27;5.00;;;3.30;;
9976;SDS011;5029;47.378;11.776;2023-01-16T19:55:35;4.30;;;3.10;;
9976;SDS011;5029;47.378;11.776;2023-01-16T20:00:40;3.30;;;2.80;;
9976;SDS011;5029;47.378;11.776;2023-01-16T20:06:04;1.47;;;1.10;;
9976;SDS011;5029;47.378;11.776;2023-01-16T20:11:10;1.90;;;0.90;;
9976;SDS011;5029;47.378;11.776;2023-01-16T20:16:14;5.00;;;3.10;;
9976;SDS011;5029;47.378;11.776;2023-01-16T20:21:19;4.03;;;3.43;;
9976;SDS011;5029;47.378;11.776;2023-01-16T20:26:35;5.60;;;3.00;;
9976;SDS011;5029;47.378;11.776;2023-01-16T20:31:41;5.73;;;3.17;;
9976;SDS011;5029;47.378;11.776;2023-01-16T20:36:46;5.43;;;3.40;;
9976;SDS011;5029;47.378;11.776;2023-01-16T20:41:52;3.17;;;2.60;;
9976;SDS011;5029;47.378;11.776;2023-01-16T20:47:15;3.87;;;2.60;;
9976;SDS011;5029;47.378;11.776;2023-01-16T20:52:20;4.30;;;2.50;;
9976;SDS011;5029;47.378;11.776;2023-01-16T21:02:35;3.93;;;3.00;;
9976;SDS011;5029;47.378;11.776;2023-01-16T21:07:40;3.23;;;2.73;;
9976;SDS011;5029;47.378;11.776;2023-01-16T21:12:44;4.20;;;2.90;;
9976;SDS011;5029;47.378;11.776;2023-01-16T21:18:09;3.40;;;2.70;;
9976;SDS011;5029;47.378;11.776;2023-01-16T21:23:30;3.73;;;2.83;;
9976;SDS011;5029;47.378;11.776;2023-01-16T21:28:36;4.10;;;2.90;;
9976;SDS011;5029;47.378;11.776;2023-01-16T21:33:41;4.03;;;2.73;;
9976;SDS011;5029;47.378;11.776;2023-01-16T21:38:45;2.87;;;2.50;;
9976;SDS011;5029;47.378;11.776;2023-01-16T21:43:48;4.63;;;2.60;;
9976;SDS011;5029;47.378;11.776;2023-01-16T21:49:10;2.67;;;2.27;;
9976;SDS011;5029;47.378;11.776;2023-01-16T21:54:13;3.87;;;2.53;;
9976;SDS011;5029;47.378;11.776;2023-01-16T21:59:17;3.33;;;2.20;;
9976;SDS011;5029;47.378;11.776;2023-01-16T22:04:21;2.13;;;1.60;;
9976;SDS011;5029;47.378;11.776;2023-01-16T22:09:25;3.43;;;2.60;;
9976;SDS011;5029;47.378;11.776;2023-01-16T22:14:28;3.20;;;2.53;;
9976;SDS011;5029;47.378;11.776;2023-01-16T22:19:51;3.87;;;2.60;;
9976;SDS011;5029;47.378;11.776;2023-01-16T22:24:59;2.93;;;2.00;;
9976;SDS011;5029;47.378;11.776;2023-01-16T22:30:03;3.00;;;2.20;;
9976;SDS011;5029;47.378;11.776;2023-01-16T22:35:08;2.47;;;2.00;;
9976;SDS011;5029;47.378;11.776;2023-01-16T22:40:13;2.50;;;1.70;;
9976;SDS011;5029;47.378;11.776;2023-01-16T22:45:16;1.97;;;1.70;;
9976;SDS011;5029;47.378;11.776;2023-01-16T22:50:38;2.33;;;1.57;;
9976;SDS011;5029;47.378;11.776;2023-01-16T22:55:42;1.80;;;1.40;;
9976;SDS011;5029;47.378;11.776;2023-01-16T23:00:47;2.47;;;1.53;;
9976;SDS011;5029;47.378;11.776;2023-01-16T23:05:52;2.60;;;1.97;;
9976;SDS011;5029;47.378;11.776;2023-01-16T23:11:06;2.07;;;1.80;;
9976;SDS011;5029;47.378;11.776;2023-01-16T23:16:11;2.23;;;1.87;;
9976;SDS011;5029;47.378;11.776;2023-01-16T23:21:15;3.03;;;1.77;;
9976;SDS011;5029;47.378;11.776;2023-01-16T23:26:19;2.57;;;1.90;;
9976;SDS011;5029;47.378;11.776;2023-01-16T23:31:23;2.20;;;1.87;;
9976;SDS011;5029;47.378;11.776;2023-01-16T23:36:29;2.53;;;1.90;;
9976;SDS011;5029;47.378;11.776;2023-01-16T23:41:33;2.93;;;2.00;;
9976;SDS011;5029;47.378;11.776;2023-01-16T23:46:54;2.50;;;2.00;;
9976;SDS011;5029;47.378;11.776;2023-01-16T23:51:59;3.77;;;2.10;;
9976;SDS011;5029;47.378;11.776;2023-01-16T23:57:07;2.67;;;1.80;;
